sensor_id;sensor_type;location;lat;lon;timestamp;temperature;humidity
46926;DHT22;32667;48.248;-1.700;2023-07-20T00:01:45;18.50;62.60
46926;DHT22;32667;48.248;-1.700;2023-07-20T00:04:28;18.50;62.70
46926;DHT22;32667;48.248;-1.700;2023-07-20T00:06:56;18.50;62.60
46926;DHT22;32667;48.248;-1.700;2023-07-20T00:09:22;18.50;62.60
46926;DHT22;32667;48.248;-1.700;2023-07-20T00:11:49;18.50;62.60
46926;DHT22;32667;48.248;-1.700;2023-07-20T00:14:19;18.50;62.50
46926;DHT22;32667;48.248;-1.700;2023-07-20T00:16:45;18.50;62.60
46926;DHT22;32667;48.248;-1.700;2023-07-20T00:19:12;18.40;62.60
46926;DHT22;32667;48.248;-1.700;2023-07-20T00:21:38;18.40;62.70
46926;DHT22;32667;48.248;-1.700;2023-07-20T00:24:06;18.30;62.60
46926;DHT22;32667;48.248;-1.700;2023-07-20T00:26:34;18.40;62.70
46926;DHT22;32667;48.248;-1.700;2023-07-20T00:29:00;18.30;62.70
46926;DHT22;32667;48.248;-1.700;2023-07-20T00:31:25;18.30;62.70
46926;DHT22;32667;48.248;-1.700;2023-07-20T00:33:52;18.30;62.70
46926;DHT22;32667;48.248;-1.700;2023-07-20T00:36:20;18.30;62.70
46926;DHT22;32667;48.248;-1.700;2023-07-20T00:38:46;18.20;62.70
46926;DHT22;32667;48.248;-1.700;2023-07-20T00:41:12;18.20;62.70
46926;DHT22;32667;48.248;-1.700;2023-07-20T00:43:38;18.20;62.70
46926;DHT22;32667;48.248;-1.700;2023-07-20T00:46:07;18.20;62.70
46926;DHT22;32667;48.248;-1.700;2023-07-20T00:48:33;18.20;62.70
46926;DHT22;32667;48.248;-1.700;2023-07-20T00:51:00;18.20;62.70
46926;DHT22;32667;48.248;-1.700;2023-07-20T00:53:29;18.20;62.70
46926;DHT22;32667;48.248;-1.700;2023-07-20T00:55:55;18.20;62.80
46926;DHT22;32667;48.248;-1.700;2023-07-20T00:58:22;18.10;62.70
46926;DHT22;32667;48.248;-1.700;2023-07-20T01:00:48;18.10;62.70
46926;DHT22;32667;48.248;-1.700;2023-07-20T01:03:13;18.00;62.80
46926;DHT22;32667;48.248;-1.700;2023-07-20T01:05:54;18.00;62.90
46926;DHT22;32667;48.248;-1.700;2023-07-20T01:08:24;18.00;63.00
46926;DHT22;32667;48.248;-1.700;2023-07-20T01:11:01;18.00;63.00
46926;DHT22;32667;48.248;-1.700;2023-07-20T01:13:35;17.90;62.90
46926;DHT22;32667;48.248;-1.700;2023-07-20T01:16:02;17.80;63.10
46926;DHT22;32667;48.248;-1.700;2023-07-20T01:18:28;17.70;63.20
46926;DHT22;32667;48.248;-1.700;2023-07-20T01:20:59;17.70;63.20
46926;DHT22;32667;48.248;-1.700;2023-07-20T01:31:28;17.60;63.20
46926;DHT22;32667;48.248;-1.700;2023-07-20T01:33:58;17.70;63.30
46926;DHT22;32667;48.248;-1.700;2023-07-20T01:36:29;17.60;63.20
46926;DHT22;32667;48.248;-1.700;2023-07-20T01:38:56;17.60;63.10
46926;DHT22;32667;48.248;-1.700;2023-07-20T01:41:22;17.70;63.20
46926;DHT22;32667;48.248;-1.700;2023-07-20T01:43:48;17.60;63.10
46926;DHT22;32667;48.248;-1.700;2023-07-20T01:46:16;17.60;63.10
46926;DHT22;32667;48.248;-1.700;2023-07-20T01:48:42;17.60;63.10
46926;DHT22;32667;48.248;-1.700;2023-07-20T01:51:08;17.60;63.70
46926;DHT22;32667;48.248;-1.700;2023-07-20T01:53:34;17.60;63.10
46926;DHT22;32667;48.248;-1.700;2023-07-20T01:56:00;17.60;63.10
46926;DHT22;32667;48.248;-1.700;2023-07-20T01:58:26;17.60;63.10
46926;DHT22;32667;48.248;-1.700;2023-07-20T02:00:51;17.50;63.10
46926;DHT22;32667;48.248;-1.700;2023-07-20T02:03:17;17.50;63.10
46926;DHT22;32667;48.248;-1.700;2023-07-20T02:05:43;17.50;63.10
46926;DHT22;32667;48.248;-1.700;2023-07-20T02:08:09;17.50;63.10
46926;DHT22;32667;48.248;-1.700;2023-07-20T02:10:37;17.50;63.10
46926;DHT22;32667;48.248;-1.700;2023-07-20T02:13:06;17.50;63.10
46926;DHT22;32667;48.248;-1.700;2023-07-20T02:15:31;17.40;63.00
46926;DHT22;32667;48.248;-1.700;2023-07-20T02:17:59;17.40;63.10
46926;DHT22;32667;48.248;-1.700;2023-07-20T02:20:25;17.40;63.10
46926;DHT22;32667;48.248;-1.700;2023-07-20T02:22:51;17.30;63.10
46926;DHT22;32667;48.248;-1.700;2023-07-20T02:25:16;17.30;63.20
46926;DHT22;32667;48.248;-1.700;2023-07-20T02:27:44;17.20;63.30
46926;DHT22;32667;48.248;-1.700;2023-07-20T02:30:10;17.20;63.40
46926;DHT22;32667;48.248;-1.700;2023-07-20T02:32:36;17.20;63.40
46926;DHT22;32667;48.248;-1.700;2023-07-20T02:35:03;17.20;63.40
46926;DHT22;32667;48.248;-1.700;2023-07-20T02:37:29;17.10;63.40
46926;DHT22;32667;48.248;-1.700;2023-07-20T02:39:54;17.10;63.40
46926;DHT22;32667;48.248;-1.700;2023-07-20T02:42:23;17.10;63.50
46926;DHT22;32667;48.248;-1.700;2023-07-20T02:44:53;17.10;63.50
46926;DHT22;32667;48.248;-1.700;2023-07-20T02:47:19;17.10;63.50
46926;DHT22;32667;48.248;-1.700;2023-07-20T02:49:44;17.10;63.50
46926;DHT22;32667;48.248;-1.700;2023-07-20T02:52:12;17.10;63.40
46926;DHT22;32667;48.248;-1.700;2023-07-20T02:54:41;17.10;63.40
46926;DHT22;32667;48.248;-1.700;2023-07-20T02:57:06;17.10;63.40
46926;DHT22;32667;48.248;-1.700;2023-07-20T02:59:34;17.00;63.30
46926;DHT22;32667;48.248;-1.700;2023-07-20T03:02:00;16.90;63.40
46926;DHT22;32667;48.248;-1.700;2023-07-20T03:04:26;17.00;63.60
46926;DHT22;32667;48.248;-1.700;2023-07-20T03:06:52;16.90;63.50
46926;DHT22;32667;48.248;-1.700;2023-07-20T03:09:18;16.90;63.50
46926;DHT22;32667;48.248;-1.700;2023-07-20T03:11:44;16.90;63.50
46926;DHT22;32667;48.248;-1.700;2023-07-20T03:14:10;16.90;63.50
46926;DHT22;32667;48.248;-1.700;2023-07-20T03:16:36;16.90;63.50
46926;DHT22;32667;48.248;-1.700;2023-07-20T03:19:02;16.80;63.50
46926;DHT22;32667;48.248;-1.700;2023-07-20T03:21:29;16.80;63.60
46926;DHT22;32667;48.248;-1.700;2023-07-20T03:23:55;16.80;63.70
46926;DHT22;32667;48.248;-1.700;2023-07-20T03:26:20;16.80;63.60
46926;DHT22;32667;48.248;-1.700;2023-07-20T03:28:46;16.70;63.60
46926;DHT22;32667;48.248;-1.700;2023-07-20T03:31:12;16.80;63.60
46926;DHT22;32667;48.248;-1.700;2023-07-20T03:33:38;16.70;64.10
46926;DHT22;32667;48.248;-1.700;2023-07-20T03:36:08;16.70;63.50
46926;DHT22;32667;48.248;-1.700;2023-07-20T03:38:35;16.70;63.50
46926;DHT22;32667;48.248;-1.700;2023-07-20T03:41:01;16.70;63.60
46926;DHT22;32667;48.248;-1.700;2023-07-20T03:43:27;16.70;63.60
46926;DHT22;32667;48.248;-1.700;2023-07-20T03:45:56;16.70;63.60
46926;DHT22;32667;48.248;-1.700;2023-07-20T03:48:24;16.70;63.60
46926;DHT22;32667;48.248;-1.700;2023-07-20T03:50:52;16.60;63.50
46926;DHT22;32667;48.248;-1.700;2023-07-20T03:53:19;16.60;63.60
46926;DHT22;32667;48.248;-1.700;2023-07-20T03:55:48;16.60;63.60
46926;DHT22;32667;48.248;-1.700;2023-07-20T03:58:15;16.60;63.60
46926;DHT22;32667;48.248;-1.700;2023-07-20T04:00:47;16.60;63.60
46926;DHT22;32667;48.248;-1.700;2023-07-20T04:03:15;16.60;63.50
46926;DHT22;32667;48.248;-1.700;2023-07-20T04:05:44;16.60;63.50
46926;DHT22;32667;48.248;-1.700;2023-07-20T04:08:13;16.60;63.50
46926;DHT22;32667;48.248;-1.700;2023-07-20T04:10:39;16.60;63.50
46926;DHT22;32667;48.248;-1.700;2023-07-20T04:13:11;16.60;63.50
46926;DHT22;32667;48.248;-1.700;2023-07-20T04:15:37;16.60;63.50
46926;DHT22;32667;48.248;-1.700;2023-07-20T04:18:02;16.50;63.40
46926;DHT22;32667;48.248;-1.700;2023-07-20T04:20:30;16.60;63.50
46926;DHT22;32667;48.248;-1.700;2023-07-20T04:22:56;16.60;63.40
46926;DHT22;32667;48.248;-1.700;2023-07-20T04:25:22;16.60;63.50
46926;DHT22;32667;48.248;-1.700;2023-07-20T04:27:48;16.60;63.50
46926;DHT22;32667;48.248;-1.700;2023-07-20T04:30:16;16.60;63.50
46926;DHT22;32667;48.248;-1.700;2023-07-20T04:32:42;16.60;63.40
46926;DHT22;32667;48.248;-1.700;2023-07-20T04:35:11;16.60;63.40
46926;DHT22;32667;48.248;-1.700;2023-07-20T04:37:36;16.50;63.40
46926;DHT22;32667;48.248;-1.700;2023-07-20T04:40:05;16.50;63.40
46926;DHT22;32667;48.248;-1.700;2023-07-20T04:42:31;16.60;63.50
46926;DHT22;32667;48.248;-1.700;2023-07-20T04:44:59;16.50;63.80
46926;DHT22;32667;48.248;-1.700;2023-07-20T04:47:27;16.50;63.50
46926;DHT22;32667;48.248;-1.700;2023-07-20T04:49:53;16.50;63.50
46926;DHT22;32667;48.248;-1.700;2023-07-20T04:52:18;16.50;63.50
46926;DHT22;32667;48.248;-1.700;2023-07-20T04:54:44;16.60;63.50
46926;DHT22;32667;48.248;-1.700;2023-07-20T04:57:11;16.60;63.40
46926;DHT22;32667;48.248;-1.700;2023-07-20T04:59:39;16.50;63.40
46926;DHT22;32667;48.248;-1.700;2023-07-20T05:02:05;16.60;63.40
46926;DHT22;32667;48.248;-1.700;2023-07-20T05:04:31;16.60;63.30
46926;DHT22;32667;48.248;-1.700;2023-07-20T05:06:57;16.60;63.30
46926;DHT22;32667;48.248;-1.700;2023-07-20T05:09:22;16.70;63.20
46926;DHT22;32667;48.248;-1.700;2023-07-20T05:11:48;16.70;63.20
46926;DHT22;32667;48.248;-1.700;2023-07-20T05:14:14;16.80;63.10
46926;DHT22;32667;48.248;-1.700;2023-07-20T05:16:40;16.80;63.00
46926;DHT22;32667;48.248;-1.700;2023-07-20T05:19:05;16.80;62.90
46926;DHT22;32667;48.248;-1.700;2023-07-20T05:21:31;16.90;62.90
46926;DHT22;32667;48.248;-1.700;2023-07-20T05:23:57;16.90;62.80
46926;DHT22;32667;48.248;-1.700;2023-07-20T05:26:23;16.90;62.80
46926;DHT22;32667;48.248;-1.700;2023-07-20T05:28:48;16.90;62.80
46926;DHT22;32667;48.248;-1.700;2023-07-20T05:31:14;16.90;62.90
46926;DHT22;32667;48.248;-1.700;2023-07-20T05:33:42;16.90;62.90
46926;DHT22;32667;48.248;-1.700;2023-07-20T05:36:24;17.00;62.90
46926;DHT22;32667;48.248;-1.700;2023-07-20T05:38:50;17.00;62.90
46926;DHT22;32667;48.248;-1.700;2023-07-20T05:41:15;17.00;62.80
46926;DHT22;32667;48.248;-1.700;2023-07-20T05:43:41;17.00;62.90
46926;DHT22;32667;48.248;-1.700;2023-07-20T05:46:07;17.00;62.80
46926;DHT22;32667;48.248;-1.700;2023-07-20T05:48:33;17.00;62.80
46926;DHT22;32667;48.248;-1.700;2023-07-20T05:50:59;17.00;62.80
46926;DHT22;32667;48.248;-1.700;2023-07-20T05:53:25;17.00;62.80
46926;DHT22;32667;48.248;-1.700;2023-07-20T05:55:54;17.00;62.80
46926;DHT22;32667;48.248;-1.700;2023-07-20T05:58:20;17.10;62.80
46926;DHT22;32667;48.248;-1.700;2023-07-20T06:00:49;17.10;62.80
46926;DHT22;32667;48.248;-1.700;2023-07-20T06:03:16;17.10;62.70
46926;DHT22;32667;48.248;-1.700;2023-07-20T06:05:42;17.10;62.70
46926;DHT22;32667;48.248;-1.700;2023-07-20T06:08:10;17.20;62.70
46926;DHT22;32667;48.248;-1.700;2023-07-20T06:10:36;17.20;62.60
46926;DHT22;32667;48.248;-1.700;2023-07-20T06:13:02;17.30;62.60
46926;DHT22;32667;48.248;-1.700;2023-07-20T06:15:34;17.30;62.70
46926;DHT22;32667;48.248;-1.700;2023-07-20T06:18:04;17.30;62.60
46926;DHT22;32667;48.248;-1.700;2023-07-20T06:20:33;17.40;62.50
46926;DHT22;32667;48.248;-1.700;2023-07-20T06:22:58;17.50;62.40
46926;DHT22;32667;48.248;-1.700;2023-07-20T06:25:24;17.50;62.30
46926;DHT22;32667;48.248;-1.700;2023-07-20T06:27:50;17.60;62.30
46926;DHT22;32667;48.248;-1.700;2023-07-20T06:30:22;17.60;62.20
46926;DHT22;32667;48.248;-1.700;2023-07-20T06:32:51;17.70;62.20
46926;DHT22;32667;48.248;-1.700;2023-07-20T06:35:17;17.70;62.20
46926;DHT22;32667;48.248;-1.700;2023-07-20T06:37:43;17.70;62.10
46926;DHT22;32667;48.248;-1.700;2023-07-20T06:40:09;17.80;62.10
46926;DHT22;32667;48.248;-1.700;2023-07-20T06:42:35;17.80;62.60
46926;DHT22;32667;48.248;-1.700;2023-07-20T06:45:02;17.90;62.00
46926;DHT22;32667;48.248;-1.700;2023-07-20T06:47:30;17.90;62.10
46926;DHT22;32667;48.248;-1.700;2023-07-20T06:49:56;17.90;62.10
46926;DHT22;32667;48.248;-1.700;2023-07-20T06:52:22;17.90;62.10
46926;DHT22;32667;48.248;-1.700;2023-07-20T06:54:47;17.90;62.00
46926;DHT22;32667;48.248;-1.700;2023-07-20T06:57:13;18.00;62.00
46926;DHT22;32667;48.248;-1.700;2023-07-20T06:59:39;18.20;61.80
46926;DHT22;32667;48.248;-1.700;2023-07-20T07:02:05;18.30;61.60
46926;DHT22;32667;48.248;-1.700;2023-07-20T07:04:33;18.40;61.50
46926;DHT22;32667;48.248;-1.700;2023-07-20T07:06:59;18.60;61.30
46926;DHT22;32667;48.248;-1.700;2023-07-20T07:09:25;18.70;61.10
46926;DHT22;32667;48.248;-1.700;2023-07-20T07:11:51;18.80;61.10
46926;DHT22;32667;48.248;-1.700;2023-07-20T07:14:19;18.80;61.00
46926;DHT22;32667;48.248;-1.700;2023-07-20T07:16:48;18.90;61.00
46926;DHT22;32667;48.248;-1.700;2023-07-20T07:19:13;19.00;60.90
46926;DHT22;32667;48.248;-1.700;2023-07-20T07:21:44;19.20;60.80
46926;DHT22;32667;48.248;-1.700;2023-07-20T07:24:20;19.40;60.70
46926;DHT22;32667;48.248;-1.700;2023-07-20T07:26:45;19.50;60.40
46926;DHT22;32667;48.248;-1.700;2023-07-20T07:29:11;19.60;60.40
46926;DHT22;32667;48.248;-1.700;2023-07-20T07:31:39;19.70;60.40
46926;DHT22;32667;48.248;-1.700;2023-07-20T07:34:05;19.70;60.40
46926;DHT22;32667;48.248;-1.700;2023-07-20T07:36:31;19.70;60.40
46926;DHT22;32667;48.248;-1.700;2023-07-20T07:38:57;19.70;60.40
46926;DHT22;32667;48.248;-1.700;2023-07-20T07:41:23;19.80;60.50
46926;DHT22;32667;48.248;-1.700;2023-07-20T07:43:49;19.80;60.50
46926;DHT22;32667;48.248;-1.700;2023-07-20T07:46:14;19.80;60.60
46926;DHT22;32667;48.248;-1.700;2023-07-20T07:48:41;19.90;60.70
46926;DHT22;32667;48.248;-1.700;2023-07-20T07:51:12;19.90;60.70
46926;DHT22;32667;48.248;-1.700;2023-07-20T07:53:39;20.00;60.60
46926;DHT22;32667;48.248;-1.700;2023-07-20T07:56:07;20.00;60.60
46926;DHT22;32667;48.248;-1.700;2023-07-20T07:58:40;20.00;60.50
46926;DHT22;32667;48.248;-1.700;2023-07-20T08:01:06;20.10;60.60
46926;DHT22;32667;48.248;-1.700;2023-07-20T08:03:37;20.00;60.70
46926;DHT22;32667;48.248;-1.700;2023-07-20T08:06:03;20.00;60.80
46926;DHT22;32667;48.248;-1.700;2023-07-20T08:08:31;20.00;60.90
46926;DHT22;32667;48.248;-1.700;2023-07-20T08:11:03;20.00;60.80
46926;DHT22;32667;48.248;-1.700;2023-07-20T08:13:29;20.00;60.80
46926;DHT22;32667;48.248;-1.700;2023-07-20T08:15:55;20.10;60.80
46926;DHT22;32667;48.248;-1.700;2023-07-20T08:18:24;20.20;60.80
46926;DHT22;32667;48.248;-1.700;2023-07-20T08:20:50;20.20;60.80
46926;DHT22;32667;48.248;-1.700;2023-07-20T08:23:16;20.20;60.70
46926;DHT22;32667;48.248;-1.700;2023-07-20T08:25:44;20.30;60.70
46926;DHT22;32667;48.248;-1.700;2023-07-20T08:28:11;20.30;60.70
46926;DHT22;32667;48.248;-1.700;2023-07-20T08:30:47;20.40;60.70
46926;DHT22;32667;48.248;-1.700;2023-07-20T08:33:15;20.30;60.70
46926;DHT22;32667;48.248;-1.700;2023-07-20T08:35:41;20.40;60.80
46926;DHT22;32667;48.248;-1.700;2023-07-20T08:38:08;20.40;60.80
46926;DHT22;32667;48.248;-1.700;2023-07-20T08:40:39;20.50;60.60
46926;DHT22;32667;48.248;-1.700;2023-07-20T08:43:13;20.70;60.50
46926;DHT22;32667;48.248;-1.700;2023-07-20T08:45:42;20.80;60.30
46926;DHT22;32667;48.248;-1.700;2023-07-20T08:48:13;20.90;60.30
46926;DHT22;32667;48.248;-1.700;2023-07-20T08:50:41;21.00;60.10
46926;DHT22;32667;48.248;-1.700;2023-07-20T08:53:08;21.00;60.60
46926;DHT22;32667;48.248;-1.700;2023-07-20T08:55:35;21.00;60.00
46926;DHT22;32667;48.248;-1.700;2023-07-20T08:58:03;21.00;60.20
46926;DHT22;32667;48.248;-1.700;2023-07-20T09:00:32;20.90;60.30
46926;DHT22;32667;48.248;-1.700;2023-07-20T09:03:02;21.00;60.40
46926;DHT22;32667;48.248;-1.700;2023-07-20T09:05:29;21.00;60.40
46926;DHT22;32667;48.248;-1.700;2023-07-20T09:07:58;21.00;60.40
46926;DHT22;32667;48.248;-1.700;2023-07-20T09:10:25;21.00;60.30
46926;DHT22;32667;48.248;-1.700;2023-07-20T09:12:53;21.00;61.00
46926;DHT22;32667;48.248;-1.700;2023-07-20T09:15:22;21.00;60.50
46926;DHT22;32667;48.248;-1.700;2023-07-20T09:17:51;21.10;60.50
46926;DHT22;32667;48.248;-1.700;2023-07-20T09:20:20;21.20;60.30
46926;DHT22;32667;48.248;-1.700;2023-07-20T09:22:50;21.30;60.10
46926;DHT22;32667;48.248;-1.700;2023-07-20T09:25:20;21.40;60.00
46926;DHT22;32667;48.248;-1.700;2023-07-20T09:27:49;21.50;60.00
46926;DHT22;32667;48.248;-1.700;2023-07-20T09:30:16;21.50;60.50
46926;DHT22;32667;48.248;-1.700;2023-07-20T09:32:48;21.60;59.90
46926;DHT22;32667;48.248;-1.700;2023-07-20T09:35:17;21.50;60.00
46926;DHT22;32667;48.248;-1.700;2023-07-20T09:37:54;21.50;60.00
46926;DHT22;32667;48.248;-1.700;2023-07-20T09:40:21;21.60;60.00
46926;DHT22;32667;48.248;-1.700;2023-07-20T09:42:52;21.60;60.00
46926;DHT22;32667;48.248;-1.700;2023-07-20T09:45:19;21.70;60.00
46926;DHT22;32667;48.248;-1.700;2023-07-20T09:47:47;21.70;59.80
46926;DHT22;32667;48.248;-1.700;2023-07-20T09:50:13;21.80;59.80
46926;DHT22;32667;48.248;-1.700;2023-07-20T09:52:40;21.90;59.70
46926;DHT22;32667;48.248;-1.700;2023-07-20T09:55:10;22.00;59.60
46926;DHT22;32667;48.248;-1.700;2023-07-20T09:57:40;22.00;59.80
46926;DHT22;32667;48.248;-1.700;2023-07-20T10:00:08;21.90;60.00
46926;DHT22;32667;48.248;-1.700;2023-07-20T10:02:43;21.90;60.00
46926;DHT22;32667;48.248;-1.700;2023-07-20T10:05:11;21.90;59.90
46926;DHT22;32667;48.248;-1.700;2023-07-20T10:07:44;22.00;59.90
46926;DHT22;32667;48.248;-1.700;2023-07-20T10:10:11;22.00;59.80
46926;DHT22;32667;48.248;-1.700;2023-07-20T10:12:39;22.10;59.80
46926;DHT22;32667;48.248;-1.700;2023-07-20T10:15:18;22.20;59.60
46926;DHT22;32667;48.248;-1.700;2023-07-20T10:20:47;22.30;59.40
46926;DHT22;32667;48.248;-1.700;2023-07-20T10:23:17;22.50;59.40
46926;DHT22;32667;48.248;-1.700;2023-07-20T10:25:43;22.60;59.30
46926;DHT22;32667;48.248;-1.700;2023-07-20T10:28:11;22.70;59.20
46926;DHT22;32667;48.248;-1.700;2023-07-20T10:30:37;22.70;59.10
46926;DHT22;32667;48.248;-1.700;2023-07-20T10:33:11;22.80;59.10
46926;DHT22;32667;48.248;-1.700;2023-07-20T10:35:56;22.80;59.00
46926;DHT22;32667;48.248;-1.700;2023-07-20T10:43:46;22.90;59.60
46926;DHT22;32667;48.248;-1.700;2023-07-20T10:46:12;22.90;59.10
46926;DHT22;32667;48.248;-1.700;2023-07-20T10:49:07;22.90;59.20
46926;DHT22;32667;48.248;-1.700;2023-07-20T10:51:47;23.00;59.10
46926;DHT22;32667;48.248;-1.700;2023-07-20T10:56:42;23.20;58.80
46926;DHT22;32667;48.248;-1.700;2023-07-20T10:59:36;23.20;58.90
46926;DHT22;32667;48.248;-1.700;2023-07-20T11:02:08;23.30;58.80
46926;DHT22;32667;48.248;-1.700;2023-07-20T11:04:45;23.40;58.70
46926;DHT22;32667;48.248;-1.700;2023-07-20T11:07:15;23.40;58.60
46926;DHT22;32667;48.248;-1.700;2023-07-20T11:09:42;23.50;58.60
46926;DHT22;32667;48.248;-1.700;2023-07-20T11:12:10;23.50;58.60
46926;DHT22;32667;48.248;-1.700;2023-07-20T11:14:53;23.50;58.60
46926;DHT22;32667;48.248;-1.700;2023-07-20T11:17:20;23.50;58.70
46926;DHT22;32667;48.248;-1.700;2023-07-20T11:19:55;23.60;58.70
46926;DHT22;32667;48.248;-1.700;2023-07-20T11:22:22;23.70;58.60
46926;DHT22;32667;48.248;-1.700;2023-07-20T11:24:48;23.80;58.50
46926;DHT22;32667;48.248;-1.700;2023-07-20T11:27:15;23.70;58.50
46926;DHT22;32667;48.248;-1.700;2023-07-20T11:29:45;23.70;58.70
46926;DHT22;32667;48.248;-1.700;2023-07-20T11:32:11;23.70;58.70
46926;DHT22;32667;48.248;-1.700;2023-07-20T11:34:37;23.80;58.60
46926;DHT22;32667;48.248;-1.700;2023-07-20T11:37:05;23.90;58.60
46926;DHT22;32667;48.248;-1.700;2023-07-20T11:39:40;23.90;58.50
46926;DHT22;32667;48.248;-1.700;2023-07-20T11:42:06;24.00;58.40
46926;DHT22;32667;48.248;-1.700;2023-07-20T11:44:34;24.20;58.30
46926;DHT22;32667;48.248;-1.700;2023-07-20T11:49:29;24.50;57.80
46926;DHT22;32667;48.248;-1.700;2023-07-20T11:51:56;24.50;57.70
46926;DHT22;32667;48.248;-1.700;2023-07-20T11:54:23;24.60;57.90
46926;DHT22;32667;48.248;-1.700;2023-07-20T11:56:55;24.60;57.90
46926;DHT22;32667;48.248;-1.700;2023-07-20T11:59:22;24.70;57.80
46926;DHT22;32667;48.248;-1.700;2023-07-20T12:01:47;24.80;57.70
46926;DHT22;32667;48.248;-1.700;2023-07-20T12:04:15;24.80;57.70
46926;DHT22;32667;48.248;-1.700;2023-07-20T12:06:41;24.90;57.70
46926;DHT22;32667;48.248;-1.700;2023-07-20T12:09:14;24.90;57.70
46926;DHT22;32667;48.248;-1.700;2023-07-20T12:11:43;25.00;57.60
46926;DHT22;32667;48.248;-1.700;2023-07-20T12:14:10;25.10;57.50
46926;DHT22;32667;48.248;-1.700;2023-07-20T12:16:37;25.20;57.30
46926;DHT22;32667;48.248;-1.700;2023-07-20T12:19:08;25.30;57.30
46926;DHT22;32667;48.248;-1.700;2023-07-20T12:21:37;25.40;57.20
46926;DHT22;32667;48.248;-1.700;2023-07-20T12:24:04;25.60;57.20
46926;DHT22;32667;48.248;-1.700;2023-07-20T12:26:31;25.80;57.10
46926;DHT22;32667;48.248;-1.700;2023-07-20T12:28:59;25.90;56.80
46926;DHT22;32667;48.248;-1.700;2023-07-20T12:31:34;26.00;56.70
46926;DHT22;32667;48.248;-1.700;2023-07-20T12:34:01;26.00;57.30
46926;DHT22;32667;48.248;-1.700;2023-07-20T12:36:27;26.10;56.80
46926;DHT22;32667;48.248;-1.700;2023-07-20T12:38:58;26.10;57.20
46926;DHT22;32667;48.248;-1.700;2023-07-20T12:41:24;26.10;56.90
46926;DHT22;32667;48.248;-1.700;2023-07-20T12:43:49;26.10;56.90
46926;DHT22;32667;48.248;-1.700;2023-07-20T12:46:15;26.20;57.00
46926;DHT22;32667;48.248;-1.700;2023-07-20T12:48:41;26.20;57.00
46926;DHT22;32667;48.248;-1.700;2023-07-20T12:51:11;26.00;57.10
46926;DHT22;32667;48.248;-1.700;2023-07-20T12:53:43;25.90;57.40
46926;DHT22;32667;48.248;-1.700;2023-07-20T12:56:09;25.80;57.60
46926;DHT22;32667;48.248;-1.700;2023-07-20T12:58:35;25.90;57.70
46926;DHT22;32667;48.248;-1.700;2023-07-20T13:01:06;25.90;57.40
46926;DHT22;32667;48.248;-1.700;2023-07-20T13:03:32;25.90;57.40
46926;DHT22;32667;48.248;-1.700;2023-07-20T13:05:57;25.90;57.60
46926;DHT22;32667;48.248;-1.700;2023-07-20T13:08:23;26.00;57.50
46926;DHT22;32667;48.248;-1.700;2023-07-20T13:10:50;26.30;57.30
46926;DHT22;32667;48.248;-1.700;2023-07-20T13:13:19;26.50;57.00
46926;DHT22;32667;48.248;-1.700;2023-07-20T13:15:45;26.70;56.80
46926;DHT22;32667;48.248;-1.700;2023-07-20T13:18:19;26.70;56.80
46926;DHT22;32667;48.248;-1.700;2023-07-20T13:20:45;26.70;56.80
46926;DHT22;32667;48.248;-1.700;2023-07-20T13:23:13;26.70;56.90
46926;DHT22;32667;48.248;-1.700;2023-07-20T13:25:38;26.60;57.00
46926;DHT22;32667;48.248;-1.700;2023-07-20T13:28:05;26.50;57.20
46926;DHT22;32667;48.248;-1.700;2023-07-20T13:30:30;26.40;57.40
46926;DHT22;32667;48.248;-1.700;2023-07-20T13:32:59;26.20;57.70
46926;DHT22;32667;48.248;-1.700;2023-07-20T13:35:25;26.20;57.80
46926;DHT22;32667;48.248;-1.700;2023-07-20T13:37:51;26.00;57.90
46926;DHT22;32667;48.248;-1.700;2023-07-20T13:40:17;25.90;58.00
46926;DHT22;32667;48.248;-1.700;2023-07-20T13:42:45;25.90;58.10
46926;DHT22;32667;48.248;-1.700;2023-07-20T13:45:13;25.80;58.20
46926;DHT22;32667;48.248;-1.700;2023-07-20T13:47:39;25.70;58.30
46926;DHT22;32667;48.248;-1.700;2023-07-20T13:50:05;25.60;58.40
46926;DHT22;32667;48.248;-1.700;2023-07-20T13:52:31;25.60;58.50
46926;DHT22;32667;48.248;-1.700;2023-07-20T13:54:59;25.60;58.60
46926;DHT22;32667;48.248;-1.700;2023-07-20T13:57:27;25.50;58.60
46926;DHT22;32667;48.248;-1.700;2023-07-20T13:59:53;25.50;58.60
46926;DHT22;32667;48.248;-1.700;2023-07-20T14:02:20;25.50;58.60
46926;DHT22;32667;48.248;-1.700;2023-07-20T14:04:51;25.50;58.50
46926;DHT22;32667;48.248;-1.700;2023-07-20T14:07:16;25.50;58.50
46926;DHT22;32667;48.248;-1.700;2023-07-20T14:09:42;25.50;58.60
46926;DHT22;32667;48.248;-1.700;2023-07-20T14:12:08;25.50;58.60
46926;DHT22;32667;48.248;-1.700;2023-07-20T14:14:36;25.50;58.50
46926;DHT22;32667;48.248;-1.700;2023-07-20T14:17:02;25.60;58.40
46926;DHT22;32667;48.248;-1.700;2023-07-20T14:19:30;25.60;58.30
46926;DHT22;32667;48.248;-1.700;2023-07-20T14:21:56;25.60;58.20
46926;DHT22;32667;48.248;-1.700;2023-07-20T14:24:24;25.70;58.20
46926;DHT22;32667;48.248;-1.700;2023-07-20T14:26:52;25.90;58.10
46926;DHT22;32667;48.248;-1.700;2023-07-20T14:29:17;26.00;57.90
46926;DHT22;32667;48.248;-1.700;2023-07-20T14:31:45;26.00;57.70
46926;DHT22;32667;48.248;-1.700;2023-07-20T14:34:16;26.10;57.80
46926;DHT22;32667;48.248;-1.700;2023-07-20T14:36:42;26.00;57.80
46926;DHT22;32667;48.248;-1.700;2023-07-20T14:39:08;26.00;58.00
46926;DHT22;32667;48.248;-1.700;2023-07-20T14:41:34;25.90;58.10
46926;DHT22;32667;48.248;-1.700;2023-07-20T14:43:59;25.80;58.30
46926;DHT22;32667;48.248;-1.700;2023-07-20T14:46:32;25.70;58.30
46926;DHT22;32667;48.248;-1.700;2023-07-20T14:48:58;25.60;58.50
46926;DHT22;32667;48.248;-1.700;2023-07-20T14:51:27;25.60;58.60
46926;DHT22;32667;48.248;-1.700;2023-07-20T14:53:57;25.50;58.70
46926;DHT22;32667;48.248;-1.700;2023-07-20T14:56:23;25.40;58.80
46926;DHT22;32667;48.248;-1.700;2023-07-20T14:58:48;25.40;58.90
46926;DHT22;32667;48.248;-1.700;2023-07-20T15:01:14;25.40;58.90
46926;DHT22;32667;48.248;-1.700;2023-07-20T15:03:40;25.30;58.80
46926;DHT22;32667;48.248;-1.700;2023-07-20T15:06:10;25.30;58.80
46926;DHT22;32667;48.248;-1.700;2023-07-20T15:08:36;25.30;58.90
46926;DHT22;32667;48.248;-1.700;2023-07-20T15:11:10;25.20;58.90
46926;DHT22;32667;48.248;-1.700;2023-07-20T15:13:43;25.20;58.90
46926;DHT22;32667;48.248;-1.700;2023-07-20T15:16:11;25.30;58.90
46926;DHT22;32667;48.248;-1.700;2023-07-20T15:18:37;25.40;58.80
46926;DHT22;32667;48.248;-1.700;2023-07-20T15:21:02;25.40;58.70
46926;DHT22;32667;48.248;-1.700;2023-07-20T15:23:28;25.40;58.60
46926;DHT22;32667;48.248;-1.700;2023-07-20T15:25:54;25.40;58.60
46926;DHT22;32667;48.248;-1.700;2023-07-20T15:28:20;25.30;58.70
46926;DHT22;32667;48.248;-1.700;2023-07-20T15:30:48;25.30;58.80
46926;DHT22;32667;48.248;-1.700;2023-07-20T15:33:14;25.20;58.80
46926;DHT22;32667;48.248;-1.700;2023-07-20T15:35:40;25.20;58.90
46926;DHT22;32667;48.248;-1.700;2023-07-20T15:38:08;25.10;58.90
46926;DHT22;32667;48.248;-1.700;2023-07-20T15:40:33;25.10;59.00